Sylvan Lake, Canada
Current Conditions -  °F | °C
As of 8:00 AM on Friday 24 Oct 2014 (Local Time) from CYQF Reporting Station
Scattered Clouds Scattered Clouds  
Wind Chill: 24°   Ceiling: Unl
Heat Index: 32°   Visibility: 15mi
Dew Point: 27°   Wind: 10mph
Humidity: 80%   Direction: 260°W
Pressure: 29.83"   Gusts: NA
Location:  52.31°N, 114.09°W
Report Text: CYQF 241400Z 26009KT 15SM FEW100 SCT250 M00/M03 A2983 RMK AC1CI2 SLP133
Loading
Personal Weather Stations






























Interactive Weather Map
Tropical Storm Tracking
New forecast layout! Learn more

10-Day Weather Forecast

Advertisements
Track Severe Weather on mobile